Time;durP1;ratioP1;P1;durP2;ratioP2;P2;SDS_P1;SDS_P2;PMS_P1;PMS_P2;Temp;Humidity;BMP_temperature;BMP_pressure;BME280_temperature;BME280_humidity;BME280_pressure;Samples;Min_cycle;Max_cycle;Signal;HPM_P1;HPM_P2
2022/07/04 00:01:31;;;;;;;4.20;3.90;;;21.60;99.90;;;;;;5073944;28;20484;-74
2022/07/04 00:03:58;;;;;;;4.03;3.80;;;21.70;99.90;;;;;;5074409;28;20455;-76
2022/07/04 00:06:25;;;;;;;4.00;3.70;;;21.80;99.90;;;;;;5074229;28;20506;-74
2022/07/04 00:08:51;;;;;;;4.47;4.17;;;21.70;99.90;;;;;;5074269;28;20453;-74
2022/07/04 00:11:18;;;;;;;3.73;3.47;;;21.80;99.90;;;;;;5074169;28;20443;-74
2022/07/04 00:13:45;;;;;;;4.37;4.07;;;21.80;99.90;;;;;;5073820;28;20456;-74
2022/07/04 00:16:12;;;;;;;4.33;3.97;;;21.80;99.90;;;;;;5074173;28;20468;-74
2022/07/04 00:18:40;;;;;;;4.30;4.00;;;21.80;99.90;;;;;;5074091;28;20446;-74
2022/07/04 00:21:06;;;;;;;4.40;4.00;;;21.80;99.90;;;;;;5074013;28;20477;-74
2022/07/04 00:23:33;;;;;;;6.43;5.73;;;21.70;99.90;;;;;;5074163;28;20453;-74
2022/07/04 00:26:00;;;;;;;4.57;4.20;;;21.70;99.90;;;;;;5073914;28;20481;-74
2022/07/04 00:28:27;;;;;;;5.30;4.80;;;21.60;99.90;;;;;;5074211;28;20444;-74
2022/07/04 00:30:53;;;;;;;4.43;3.40;;;21.60;99.90;;;;;;5073971;28;20445;-74
2022/07/04 00:33:20;;;;;;;6.13;4.20;;;21.50;99.90;;;;;;5074158;28;20449;-74
2022/07/04 00:35:48;;;;;;;3.47;3.27;;;21.40;99.90;;;;;;5073884;28;20464;-74
2022/07/04 00:38:15;;;;;;;6.00;3.97;;;21.50;99.90;;;;;;5073561;28;20456;-74
2022/07/04 00:40:42;;;;;;;3.20;2.87;;;21.50;99.90;;;;;;5073749;28;20929;-74
2022/07/04 00:43:08;;;;;;;3.40;3.30;;;21.40;99.90;;;;;;5073747;28;20460;-74
2022/07/04 00:45:35;;;;;;;3.90;3.60;;;21.40;99.90;;;;;;5073547;28;20809;-74
2022/07/04 00:48:02;;;;;;;4.60;3.73;;;21.40;99.90;;;;;;5073553;28;20444;-74
2022/07/04 00:50:29;;;;;;;4.43;3.80;;;21.40;99.90;;;;;;5073246;28;20948;-74
2022/07/04 00:52:57;;;;;;;3.93;3.73;;;21.30;99.90;;;;;;5073608;28;20853;-74
2022/07/04 00:55:25;;;;;;;3.67;3.47;;;21.30;99.90;;;;;;5073555;28;20480;-74
2022/07/04 00:57:52;;;;;;;3.90;3.67;;;21.20;99.90;;;;;;5073526;28;20452;-74
2022/07/04 01:00:19;;;;;;;3.60;3.30;;;21.20;99.90;;;;;;5073372;28;20452;-74
2022/07/04 01:02:46;;;;;;;4.13;3.67;;;21.20;99.90;;;;;;5072948;28;21014;-74
2022/07/04 01:05:14;;;;;;;3.77;3.50;;;21.20;99.90;;;;;;5073213;28;20465;-75
2022/07/04 01:07:41;;;;;;;4.60;4.27;;;21.10;99.90;;;;;;5073273;28;20854;-74
2022/07/04 01:10:10;;;;;;;3.77;3.37;;;21.10;99.90;;;;;;5073164;28;20448;-74
2022/07/04 01:12:37;;;;;;;3.97;3.73;;;21.20;99.90;;;;;;5073271;28;20452;-74
2022/07/04 01:15:05;;;;;;;5.00;4.60;;;21.40;99.90;;;;;;5073527;28;20445;-75
2022/07/04 01:17:32;;;;;;;4.00;3.80;;;21.10;99.90;;;;;;5074034;28;20448;-74
2022/07/04 01:19:59;;;;;;;3.60;3.40;;;21.10;99.90;;;;;;5073205;28;20448;-74
2022/07/04 01:22:27;;;;;;;3.80;3.57;;;21.00;99.90;;;;;;5073231;28;20476;-75
2022/07/04 01:24:54;;;;;;;3.33;3.10;;;21.10;99.90;;;;;;5072552;28;20452;-74
2022/07/04 01:27:20;;;;;;;4.33;3.93;;;20.90;99.90;;;;;;5073301;28;20781;-74
2022/07/04 01:29:47;;;;;;;4.00;3.70;;;20.90;99.90;;;;;;5073047;28;20445;-74
2022/07/04 01:32:14;;;;;;;3.80;3.50;;;21.00;99.90;;;;;;5072923;28;20445;-74
2022/07/04 01:34:40;;;;;;;3.67;3.43;;;20.80;99.90;;;;;;5072956;28;20823;-74
2022/07/04 01:37:07;;;;;;;4.60;4.30;;;20.70;99.90;;;;;;5075699;28;20460;-74
2022/07/04 01:39:35;;;;;;;4.07;3.87;;;20.70;99.90;;;;;;5077064;28;20927;-74
2022/07/04 01:42:02;;;;;;;4.20;3.80;;;20.60;99.90;;;;;;5076928;28;20480;-74
2022/07/04 01:44:29;;;;;;;4.10;3.90;;;20.60;99.90;;;;;;5077053;28;20498;-75
2022/07/04 01:46:56;;;;;;;4.50;4.20;;;20.60;99.90;;;;;;5076990;28;20472;-74
2022/07/04 01:49:22;;;;;;;4.17;3.87;;;20.60;99.90;;;;;;5076671;28;20453;-74
2022/07/04 01:51:51;;;;;;;3.77;3.57;;;20.50;99.90;;;;;;5076527;28;21008;-74
2022/07/04 01:54:18;;;;;;;4.03;3.77;;;20.40;99.90;;;;;;5076819;28;20448;-74
2022/07/04 01:56:46;;;;;;;3.90;3.60;;;20.50;99.90;;;;;;5076468;28;20476;-74
2022/07/04 01:59:13;;;;;;;3.70;3.50;;;20.50;99.90;;;;;;5076253;28;20448;-74
2022/07/04 02:01:38;;;;;;;6.17;4.10;;;20.40;99.90;;;;;;5076511;28;20477;-74
2022/07/04 02:04:07;;;;;;;4.47;4.17;;;20.30;99.90;;;;;;5076741;28;20451;-75
2022/07/04 02:06:34;;;;;;;4.27;4.00;;;20.10;99.90;;;;;;5076557;28;20256;-74
2022/07/04 02:09:16;;;;;;;4.53;4.13;;;20.00;99.90;;;;;;5076544;28;20448;-74
2022/07/04 02:14:30;;;;;;;5.20;4.70;;;19.70;99.90;;;;;;5076621;28;20408;-75
2022/07/04 02:16:56;;;;;;;5.07;4.57;;;19.70;99.90;;;;;;5076006;28;20543;-74
2022/07/04 02:19:23;;;;;;;6.37;5.10;;;19.80;99.90;;;;;;5076367;28;20448;-74
2022/07/04 02:21:51;;;;;;;6.13;5.50;;;19.70;99.90;;;;;;5076209;28;20518;-74
2022/07/04 02:24:18;;;;;;;6.17;5.67;;;19.60;99.90;;;;;;5076226;28;20488;-74
2022/07/04 02:26:45;;;;;;;6.73;6.13;;;19.40;99.90;;;;;;5078029;22;20895;-77
2022/07/04 02:29:12;;;;;;;5.60;5.23;;;19.50;99.90;;;;;;5056557;28;20446;-77
2022/07/04 02:31:40;;;;;;;6.70;6.20;;;19.40;99.90;;;;;;5056912;28;20438;-76
2022/07/04 02:34:06;;;;;;;7.10;6.60;;;19.30;99.90;;;;;;5056932;28;20812;-76
2022/07/04 02:36:33;;;;;;;6.90;6.30;;;19.40;99.90;;;;;;5056209;28;20980;-76
2022/07/04 02:39:00;;;;;;;8.70;7.03;;;19.30;99.90;;;;;;5056335;28;20438;-76
2022/07/04 02:41:27;;;;;;;7.73;7.13;;;19.30;99.90;;;;;;5056245;28;20852;-76
2022/07/04 02:43:53;;;;;;;8.77;8.07;;;19.30;99.90;;;;;;5056160;28;20445;-77
2022/07/04 02:46:20;;;;;;;8.53;7.63;;;19.20;99.90;;;;;;5056276;28;20480;-76
2022/07/04 02:48:48;;;;;;;8.20;7.60;;;19.10;99.90;;;;;;5054992;28;20449;-77
2022/07/04 02:51:15;;;;;;;8.87;8.10;;;19.10;99.90;;;;;;5056180;28;20452;-77
2022/07/04 02:53:41;;;;;;;9.33;8.57;;;19.10;99.90;;;;;;5055805;28;20453;-77
2022/07/04 02:56:09;;;;;;;9.00;8.20;;;18.80;99.90;;;;;;5055623;28;20568;-77
2022/07/04 02:58:36;;;;;;;8.80;8.10;;;18.80;99.90;;;;;;5055960;28;20453;-78
2022/07/04 03:01:02;;;;;;;11.23;10.20;;;18.70;99.90;;;;;;5055703;28;20936;-77
2022/07/04 03:03:29;;;;;;;8.83;8.13;;;18.90;99.90;;;;;;5055425;28;20485;-76
2022/07/04 03:05:57;;;;;;;9.97;8.93;;;18.80;99.90;;;;;;5055284;28;21018;-77
2022/07/04 03:08:24;;;;;;;10.83;9.37;;;18.80;99.90;;;;;;5055553;28;20449;-77
2022/07/04 03:10:51;;;;;;;9.80;9.00;;;18.90;99.90;;;;;;5055405;28;20457;-76
2022/07/04 03:13:19;;;;;;;9.50;8.77;;;18.80;99.90;;;;;;5055681;28;20442;-77
2022/07/04 03:15:46;;;;;;;9.80;8.90;;;18.90;99.90;;;;;;5055401;28;20478;-76
2022/07/04 03:18:13;;;;;;;9.97;9.17;;;18.50;99.90;;;;;;5056138;28;20446;-78
2022/07/04 03:20:40;;;;;;;11.07;10.00;;;18.80;99.90;;;;;;5055752;28;20452;-77
2022/07/04 03:23:08;;;;;;;10.60;9.80;;;18.90;99.90;;;;;;5055716;28;21019;-76
2022/07/04 03:25:35;;;;;;;10.17;9.40;;;18.80;99.90;;;;;;5055521;28;20524;-76
2022/07/04 03:28:01;;;;;;;9.73;9.03;;;18.80;99.90;;;;;;5055414;28;20434;-77
2022/07/04 03:30:28;;;;;;;10.70;9.67;;;18.90;99.90;;;;;;5056030;28;20450;-77
2022/07/04 03:32:55;;;;;;;10.87;10.00;;;18.90;99.90;;;;;;5055295;28;20450;-77
2022/07/04 03:35:24;;;;;;;9.23;8.53;;;18.90;99.90;;;;;;5055969;28;20472;-78
2022/07/04 03:37:51;;;;;;;17.57;15.87;;;18.80;99.90;;;;;;5055245;28;20928;-77
2022/07/04 03:40:20;;;;;;;14.37;12.87;;;18.90;99.90;;;;;;5055301;28;20474;-77
2022/07/04 03:42:47;;;;;;;9.63;8.90;;;18.80;99.90;;;;;;5054826;28;20485;-77
2022/07/04 03:45:14;;;;;;;10.70;9.90;;;18.80;99.90;;;;;;5055046;28;20449;-77
2022/07/04 03:47:41;;;;;;;18.50;16.70;;;18.80;99.90;;;;;;5055012;28;20457;-77
2022/07/04 03:50:09;;;;;;;10.53;9.43;;;18.80;99.90;;;;;;5055029;28;20449;-77
2022/07/04 03:52:36;;;;;;;11.40;10.37;;;18.80;99.90;;;;;;5055308;28;20449;-77
2022/07/04 03:55:02;;;;;;;12.20;11.03;;;18.60;99.90;;;;;;5055086;28;20457;-76
2022/07/04 03:57:30;;;;;;;13.77;12.50;;;18.70;99.90;;;;;;5056140;28;20462;-76
2022/07/04 03:59:57;;;;;;;11.50;10.50;;;18.70;99.90;;;;;;5054750;28;20948;-77
2022/07/04 04:02:24;;;;;;;12.23;11.00;;;18.80;99.90;;;;;;5054541;28;20478;-77
2022/07/04 04:07:35;;;;;;;19.13;17.17;;;18.70;99.90;;;;;;5054966;28;20460;-77
2022/07/04 04:10:02;;;;;;;12.00;10.43;;;18.80;99.90;;;;;;5054541;28;20458;-76
2022/07/04 04:12:30;;;;;;;10.57;9.77;;;18.50;99.90;;;;;;5054653;28;20442;-78
2022/07/04 04:14:57;;;;;;;10.80;9.73;;;18.50;99.90;;;;;;5054578;28;20441;-76
2022/07/04 04:17:23;;;;;;;11.13;10.10;;;18.60;99.90;;;;;;5054813;28;20468;-77
2022/07/04 04:19:50;;;;;;;11.27;10.27;;;18.70;99.90;;;;;;5054569;28;20583;-76
2022/07/04 04:22:17;;;;;;;12.60;11.40;;;18.70;99.90;;;;;;5054344;28;20477;-76
2022/07/04 04:24:43;;;;;;;11.53;10.57;;;18.80;99.90;;;;;;5054359;28;20449;-76
2022/07/04 04:27:10;;;;;;;18.60;13.70;;;18.80;99.90;;;;;;5055082;28;20469;-76
2022/07/04 04:29:38;;;;;;;12.20;11.03;;;18.80;99.90;;;;;;5056050;28;20434;-76
2022/07/04 04:32:05;;;;;;;24.87;22.20;;;18.90;99.90;;;;;;5055531;28;20446;-76
2022/07/04 04:34:33;;;;;;;21.60;19.40;;;18.70;99.90;;;;;;5055400;28;20450;-76
2022/07/04 04:37:00;;;;;;;11.20;10.40;;;18.80;99.90;;;;;;5055195;28;20504;-76
2022/07/04 04:39:27;;;;;;;33.83;27.00;;;18.80;99.90;;;;;;5054151;28;20450;-76
2022/07/04 04:41:54;;;;;;;19.53;17.50;;;19.20;99.90;;;;;;5053853;28;20450;-76
2022/07/04 04:44:20;;;;;;;39.10;31.43;;;18.80;99.90;;;;;;5053900;28;20978;-77
2022/07/04 04:46:48;;;;;;;13.60;11.70;;;18.90;99.90;;;;;;5053724;28;20466;-77
2022/07/04 04:49:16;;;;;;;12.27;11.03;;;18.90;99.90;;;;;;5053872;28;20446;-76
2022/07/04 04:51:43;;;;;;;13.37;11.90;;;19.00;99.90;;;;;;5054439;28;20449;-76
2022/07/04 04:54:10;;;;;;;12.33;11.30;;;19.00;99.90;;;;;;5054179;28;20446;-77
2022/07/04 04:56:37;;;;;;;11.73;10.83;;;18.70;99.90;;;;;;5056296;28;20480;-76
2022/07/04 04:59:04;;;;;;;13.13;12.20;;;18.70;99.90;;;;;;5054685;28;20799;-76
2022/07/04 05:01:30;;;;;;;10.53;9.70;;;18.70;99.90;;;;;;5054697;28;20453;-77
2022/07/04 05:03:58;;;;;;;36.37;32.43;;;18.90;99.90;;;;;;5053626;28;20895;-76
2022/07/04 05:06:25;;;;;;;12.63;11.63;;;18.80;99.90;;;;;;5053291;28;21016;-78
2022/07/04 05:08:52;;;;;;;10.43;9.53;;;18.90;99.90;;;;;;5053558;28;20471;-77
2022/07/04 05:11:19;;;;;;;10.23;9.40;;;18.80;99.90;;;;;;5052827;28;20859;-77
2022/07/04 05:13:46;;;;;;;9.93;9.20;;;18.90;99.90;;;;;;5053508;28;20454;-77
2022/07/04 05:16:13;;;;;;;10.87;9.90;;;19.00;99.90;;;;;;5053675;28;20465;-77
2022/07/04 05:18:40;;;;;;;10.87;9.97;;;19.00;99.90;;;;;;5053890;28;20460;-77
2022/07/04 05:21:08;;;;;;;10.60;9.60;;;19.20;99.90;;;;;;5053759;28;20441;-77
2022/07/04 05:23:34;;;;;;;11.47;10.20;;;19.00;99.90;;;;;;5053757;28;20484;-76
2022/07/04 05:26:01;;;;;;;11.70;10.60;;;19.00;99.90;;;;;;5053820;28;20906;-77
2022/07/04 05:28:28;;;;;;;12.30;9.40;;;19.30;99.90;;;;;;5053532;28;20449;-76
2022/07/04 05:30:54;;;;;;;11.70;10.80;;;19.40;99.90;;;;;;5053844;28;20451;-78
2022/07/04 05:33:21;;;;;;;9.40;8.60;;;19.50;99.90;;;;;;5053805;28;20822;-77
2022/07/04 05:35:48;;;;;;;10.17;9.17;;;19.40;99.90;;;;;;5053493;28;20481;-77
2022/07/04 05:38:16;;;;;;;7.90;7.30;;;19.50;99.90;;;;;;5053471;28;20445;-77
2022/07/04 05:40:43;;;;;;;11.87;10.63;;;19.60;99.90;;;;;;5053389;28;20483;-77
2022/07/04 05:43:11;;;;;;;8.17;7.50;;;19.60;99.90;;;;;;5053497;28;20576;-77
2022/07/04 05:45:38;;;;;;;7.97;7.17;;;19.40;99.90;;;;;;5053290;28;20474;-77
2022/07/04 05:48:05;;;;;;;6.80;6.30;;;19.10;99.90;;;;;;5053860;28;20549;-77
2022/07/04 05:50:32;;;;;;;10.17;8.10;;;18.90;99.90;;;;;;5052762;28;20948;-77
2022/07/04 05:52:59;;;;;;;9.50;7.63;;;19.00;99.90;;;;;;5052898;28;20446;-77
2022/07/04 05:55:27;;;;;;;6.07;5.53;;;19.20;99.90;;;;;;5052814;28;20999;-77
2022/07/04 05:57:54;;;;;;;5.60;5.13;;;19.20;99.90;;;;;;5052979;28;20489;-77
2022/07/04 06:00:21;;;;;;;6.27;5.07;;;19.40;99.90;;;;;;5053093;28;20453;-77
2022/07/04 06:02:48;;;;;;;6.17;5.60;;;19.40;99.90;;;;;;5053453;28;20477;-77
2022/07/04 06:05:15;;;;;;;6.03;5.43;;;19.60;99.90;;;;;;5053758;28;20473;-77
2022/07/04 06:07:41;;;;;;;5.73;5.23;;;19.60;99.90;;;;;;5054126;28;20850;-77
2022/07/04 06:10:09;;;;;;;6.53;5.00;;;19.70;99.90;;;;;;5054362;28;20548;-77
2022/07/04 06:12:37;;;;;;;7.70;5.47;;;19.40;99.90;;;;;;5053278;28;20941;-77
2022/07/04 06:15:05;;;;;;;6.07;4.40;;;19.50;99.90;;;;;;5052843;28;20479;-77
2022/07/04 06:17:31;;;;;;;5.07;4.50;;;19.50;99.90;;;;;;5053394;28;20538;-77
2022/07/04 06:19:58;;;;;;;5.27;4.87;;;19.80;99.90;;;;;;5052955;28;20820;-77
2022/07/04 06:22:25;;;;;;;4.70;4.40;;;19.90;99.90;;;;;;5054470;28;20449;-77
2022/07/04 06:24:52;;;;;;;6.03;4.40;;;20.00;99.90;;;;;;5056465;28;20445;-77
2022/07/04 06:27:18;;;;;;;4.60;4.20;;;19.80;99.90;;;;;;5056225;28;20469;-77
2022/07/04 06:29:47;;;;;;;4.23;3.87;;;19.70;99.90;;;;;;5056302;28;20504;-77
2022/07/04 06:32:13;;;;;;;5.80;5.20;;;19.40;99.90;;;;;;5056310;28;20446;-77
2022/07/04 06:37:25;;;;;;;4.53;4.20;;;19.90;99.90;;;;;;5056669;28;20967;-77
2022/07/04 06:39:51;;;;;;;5.07;4.67;;;20.00;99.90;;;;;;5056599;28;20477;-77
2022/07/04 06:42:18;;;;;;;4.50;3.93;;;20.10;99.90;;;;;;5056363;28;20937;-77
2022/07/04 06:44:45;;;;;;;5.13;3.00;;;20.20;99.90;;;;;;5056493;28;20448;-77
2022/07/04 06:47:13;;;;;;;3.40;3.10;;;20.30;99.90;;;;;;5056644;28;20844;-77
2022/07/04 06:49:39;;;;;;;2.50;2.20;;;20.20;99.90;;;;;;5056441;28;20445;-77
2022/07/04 06:52:06;;;;;;;2.60;2.47;;;20.20;99.90;;;;;;5057127;28;20453;-77
2022/07/04 06:54:33;;;;;;;3.37;2.60;;;20.00;99.90;;;;;;5055997;28;20975;-77
2022/07/04 06:57:00;;;;;;;5.03;2.27;;;20.10;99.90;;;;;;5055911;28;20774;-77
2022/07/04 06:59:26;;;;;;;2.30;2.20;;;20.10;99.90;;;;;;5055476;28;20457;-77
2022/07/04 07:01:53;;;;;;;2.20;2.10;;;20.10;99.90;;;;;;5056900;28;20446;-77
2022/07/04 07:04:21;;;;;;;3.07;2.47;;;20.20;99.90;;;;;;5056410;28;20488;-77
2022/07/04 07:06:48;;;;;;;2.23;2.13;;;20.20;99.90;;;;;;5055855;28;20473;-77
2022/07/04 07:09:15;;;;;;;2.97;1.93;;;20.20;99.90;;;;;;5056714;28;20816;-77
2022/07/04 07:11:41;;;;;;;2.97;2.77;;;20.20;99.90;;;;;;5058196;28;20456;-77
2022/07/04 07:14:08;;;;;;;2.50;2.03;;;20.30;99.90;;;;;;5057687;28;20444;-76
2022/07/04 07:16:35;;;;;;;2.53;2.33;;;20.40;99.90;;;;;;5057276;28;20469;-76
2022/07/04 07:19:02;;;;;;;2.90;2.70;;;20.50;99.90;;;;;;5059850;28;20831;-76
2022/07/04 07:21:30;;;;;;;5.00;2.43;;;20.60;99.90;;;;;;5057387;28;20452;-77
2022/07/04 07:23:57;;;;;;;2.90;2.27;;;20.80;99.90;;;;;;5058134;28;20552;-77
2022/07/04 07:26:23;;;;;;;4.07;2.30;;;20.70;99.90;;;;;;5059706;28;20481;-75
2022/07/04 07:28:50;;;;;;;4.20;2.47;;;20.70;99.90;;;;;;5059291;28;20815;-76
2022/07/04 07:31:17;;;;;;;7.10;1.73;;;20.50;99.90;;;;;;5059399;28;20952;-76
2022/07/04 07:33:44;;;;;;;2.80;2.50;;;20.50;99.90;;;;;;5057380;28;20442;-77
2022/07/04 07:36:10;;;;;;;2.70;2.10;;;20.50;99.90;;;;;;5058226;28;20469;-76
2022/07/04 07:38:38;;;;;;;3.17;2.80;;;20.50;99.90;;;;;;5059247;28;20987;-76
2022/07/04 07:41:09;;;;;;;4.60;1.30;;;20.70;99.90;;;;;;5059060;28;20518;-76
2022/07/04 07:43:36;;;;;;;3.40;1.47;;;20.80;99.90;;;;;;5057500;28;20472;-76
2022/07/04 07:46:03;;;;;;;1.63;1.53;;;20.90;99.90;;;;;;5056809;28;20485;-77
2022/07/04 07:48:30;;;;;;;1.40;1.20;;;20.90;99.90;;;;;;5055901;28;20966;-76
2022/07/04 07:50:56;;;;;;;3.93;1.70;;;20.90;99.90;;;;;;5056131;28;20450;-77
2022/07/04 07:53:23;;;;;;;3.27;2.23;;;20.90;99.90;;;;;;5056217;28;20785;-76
2022/07/04 07:55:51;;;;;;;2.20;2.00;;;20.90;99.90;;;;;;5055100;28;20477;-76
2022/07/04 07:58:19;;;;;;;2.10;2.00;;;20.70;99.90;;;;;;5055554;28;20449;-76
2022/07/04 08:00:46;;;;;;;3.23;1.63;;;20.70;99.90;;;;;;5055136;28;20445;-78
2022/07/04 08:05:57;;;;;;;1.80;1.70;;;20.90;99.90;;;;;;5054868;28;21027;-76
2022/07/04 08:08:24;;;;;;;2.37;2.10;;;20.60;99.90;;;;;;5054657;28;20540;-76
2022/07/04 08:10:52;;;;;;;1.90;1.80;;;20.70;99.90;;;;;;5054474;28;20456;-76
2022/07/04 08:13:18;;;;;;;1.83;1.73;;;20.80;99.90;;;;;;5054502;28;20945;-77
2022/07/04 08:15:45;;;;;;;1.63;1.37;;;20.80;99.90;;;;;;5054293;28;20470;-76
2022/07/04 08:18:12;;;;;;;1.67;1.40;;;20.80;99.90;;;;;;5054615;28;20456;-75
2022/07/04 08:20:39;;;;;;;2.47;1.90;;;20.70;99.90;;;;;;5054321;28;20832;-76
2022/07/04 08:23:06;;;;;;;3.03;1.90;;;20.60;99.90;;;;;;5054547;28;20477;-76
2022/07/04 08:28:11;;;;;;;1.47;1.37;;;20.80;99.90;;;;;;5052771;28;20956;-75
2022/07/04 08:30:38;;;;;;;1.93;1.50;;;21.00;99.90;;;;;;5053967;28;20441;-75
2022/07/04 08:33:05;;;;;;;1.70;1.60;;;20.80;99.90;;;;;;5054210;28;20437;-74
2022/07/04 08:35:33;;;;;;;2.13;1.60;;;20.90;99.90;;;;;;5053718;28;20473;-74
2022/07/04 08:37:59;;;;;;;1.80;1.23;;;21.00;99.90;;;;;;5053609;28;20552;-74
2022/07/04 08:40:28;;;;;;;3.47;1.53;;;20.90;99.90;;;;;;5053390;28;20469;-75
2022/07/04 08:42:55;;;;;;;1.47;1.37;;;20.70;99.90;;;;;;5054903;28;20441;-75
2022/07/04 08:45:27;;;;;;;2.77;1.60;;;20.60;99.90;;;;;;5053669;28;20449;-76
2022/07/04 08:48:00;;;;;;;3.00;1.40;;;20.80;99.90;;;;;;5053634;28;20529;-75
2022/07/04 08:50:31;;;;;;;2.63;2.20;;;20.90;99.90;;;;;;5053751;28;20430;-75
2022/07/04 08:53:01;;;;;;;1.60;1.20;;;21.20;99.90;;;;;;5053717;28;20434;-74
2022/07/04 08:58:33;;;;;;;1.87;1.30;;;21.30;99.90;;;;;;5053238;28;20405;-75
2022/07/04 09:01:03;;;;;;;2.70;2.43;;;21.40;99.90;;;;;;5053497;28;20600;-75
2022/07/04 09:03:30;;;;;;;6.43;1.77;;;21.40;99.90;;;;;;5053092;28;20485;-75
2022/07/04 09:05:57;;;;;;;1.50;1.33;;;21.50;99.90;;;;;;5053134;28;20469;-75
2022/07/04 09:08:25;;;;;;;2.30;1.60;;;21.70;99.90;;;;;;5052826;28;20970;-75
2022/07/04 09:10:53;;;;;;;1.90;1.70;;;21.70;99.90;;;;;;5053392;28;20845;-75
2022/07/04 09:13:20;;;;;;;4.90;1.83;;;21.70;99.90;;;;;;5053240;28;20445;-76
2022/07/04 09:15:50;;;;;;;2.67;2.47;;;21.20;99.90;;;;;;5053160;28;20469;-75
2022/07/04 09:18:23;;;;;;;3.73;1.77;;;21.50;99.90;;;;;;5053008;28;20445;-75
2022/07/04 09:20:50;;;;;;;1.40;1.30;;;21.60;99.90;;;;;;5053160;28;20453;-76
2022/07/04 09:23:21;;;;;;;3.03;1.30;;;21.60;99.90;;;;;;5052923;28;20503;-75
2022/07/04 09:25:49;;;;;;;2.73;1.30;;;21.90;99.90;;;;;;5053558;28;20457;-75
2022/07/04 09:28:28;;;;;;;3.53;1.70;;;21.60;99.90;;;;;;5053008;28;20457;-75
2022/07/04 09:30:55;;;;;;;1.60;1.50;;;21.70;99.90;;;;;;5054120;28;20500;-76
2022/07/04 09:33:23;;;;;;;2.50;1.63;;;21.80;99.90;;;;;;5054137;28;20445;-75
2022/07/04 09:35:50;;;;;;;1.77;1.67;;;22.30;99.90;;;;;;5053804;28;20449;-75
2022/07/04 09:38:24;;;;;;;2.07;1.63;;;22.00;99.90;;;;;;5053890;28;20442;-76
2022/07/04 09:43:38;;;;;;;1.60;1.50;;;22.30;99.90;;;;;;5053614;28;20456;-76
2022/07/04 09:46:05;;;;;;;4.03;1.60;;;22.10;99.90;;;;;;5052995;28;21023;-75
2022/07/04 09:48:51;;;;;;;3.37;1.70;;;22.10;99.90;;;;;;5055460;28;20859;-75
2022/07/04 09:51:37;;;;;;;3.37;2.30;;;22.20;99.90;;;;;;5056548;28;20434;-76
2022/07/04 09:54:14;;;;;;;2.40;1.57;;;22.40;99.90;;;;;;5061534;28;20425;-76
2022/07/04 09:56:41;;;;;;;3.27;1.83;;;22.50;99.90;;;;;;5060486;28;20469;-76
2022/07/04 09:59:08;;;;;;;2.70;1.73;;;22.50;99.90;;;;;;5058505;28;20808;-75
2022/07/04 10:01:35;;;;;;;1.70;1.50;;;22.40;99.90;;;;;;5060358;28;20437;-76
2022/07/04 10:04:04;;;;;;;3.43;1.33;;;22.60;99.90;;;;;;5064361;28;20484;-76
2022/07/04 10:06:33;;;;;;;3.80;1.33;;;22.70;99.90;;;;;;5065116;28;20497;-75
2022/07/04 10:09:09;;;;;;;1.80;1.70;;;22.80;99.90;;;;;;5063058;28;20541;-76
2022/07/04 10:11:38;;;;;;;1.93;1.50;;;22.90;99.90;;;;;;5056327;28;20456;-75
2022/07/04 10:14:05;;;;;;;2.37;1.70;;;23.20;99.90;;;;;;5056707;28;20953;-75
2022/07/04 10:16:32;;;;;;;3.40;1.67;;;23.40;99.90;;;;;;5056450;28;20515;-75
2022/07/04 10:19:00;;;;;;;3.53;1.67;;;23.50;99.90;;;;;;5056552;28;20789;-75
2022/07/04 10:21:29;;;;;;;2.50;1.50;;;23.30;99.90;;;;;;5056734;28;20445;-75
2022/07/04 10:23:56;;;;;;;3.37;1.50;;;23.20;99.90;;;;;;5056643;28;20473;-75
2022/07/04 10:26:23;;;;;;;1.73;1.63;;;23.10;99.90;;;;;;5056355;28;20481;-75
2022/07/04 10:28:52;;;;;;;3.13;1.27;;;23.20;99.90;;;;;;5056501;28;20499;-75
2022/07/04 10:31:19;;;;;;;1.40;1.30;;;23.20;99.90;;;;;;5056498;28;20464;-75
2022/07/04 10:33:46;;;;;;;4.30;1.80;;;22.90;99.90;;;;;;5056335;28;20448;-75
2022/07/04 10:36:18;;;;;;;1.70;1.57;;;23.00;99.90;;;;;;5056217;28;20471;-75
2022/07/04 10:38:51;;;;;;;2.77;1.93;;;23.10;99.90;;;;;;5056420;28;20450;-75
2022/07/04 10:41:20;;;;;;;2.50;1.20;;;23.20;99.90;;;;;;5056064;28;20472;-76
2022/07/04 10:44:06;;;;;;;1.00;1.00;;;23.40;99.90;;;;;;5056137;28;20513;-75
2022/07/04 10:46:38;;;;;;;5.10;1.50;;;23.50;99.90;;;;;;5056352;28;20461;-76
2022/07/04 10:49:08;;;;;;;1.63;1.53;;;23.60;99.90;;;;;;5056108;28;20484;-75
2022/07/04 10:51:41;;;;;;;2.70;2.50;;;23.60;99.90;;;;;;5055892;28;20442;-75
2022/07/04 10:54:11;;;;;;;1.40;1.23;;;23.60;99.90;;;;;;5055683;28;20433;-74
2022/07/04 10:56:41;;;;;;;1.57;1.03;;;23.30;99.90;;;;;;5055680;28;20996;-75
2022/07/04 10:59:14;;;;;;;3.30;1.73;;;23.10;99.90;;;;;;5055787;28;20448;-75
2022/07/04 11:01:46;;;;;;;1.77;1.67;;;23.00;99.90;;;;;;5055832;28;20445;-76
2022/07/04 11:04:13;;;;;;;2.23;1.50;;;23.10;99.90;;;;;;5055322;28;20472;-75
2022/07/04 11:06:55;;;;;;;2.53;2.33;;;23.10;99.90;;;;;;5055742;28;20461;-74
2022/07/04 11:09:25;;;;;;;1.87;1.77;;;23.20;99.90;;;;;;5054917;28;20461;-75
2022/07/04 11:11:56;;;;;;;1.93;1.83;;;23.30;99.90;;;;;;5055871;28;20450;-75
2022/07/04 11:14:33;;;;;;;1.83;1.70;;;23.20;99.90;;;;;;5055105;28;20948;-74
2022/07/04 11:17:00;;;;;;;2.47;1.60;;;23.20;99.90;;;;;;5054931;28;20991;-74
2022/07/04 11:19:28;;;;;;;1.50;1.40;;;23.10;99.90;;;;;;5055620;28;20452;-74
2022/07/04 11:21:55;;;;;;;2.37;2.10;;;23.30;99.90;;;;;;5055171;28;20473;-74
2022/07/04 11:24:24;;;;;;;2.13;1.70;;;23.50;99.90;;;;;;5055363;28;20572;-75
2022/07/04 11:26:51;;;;;;;3.10;2.90;;;23.80;99.90;;;;;;5054573;28;20486;-74
2022/07/04 11:29:18;;;;;;;1.50;1.23;;;23.80;99.90;;;;;;5055227;28;20498;-74
2022/07/04 11:31:46;;;;;;;1.80;1.70;;;23.90;99.90;;;;;;5055042;28;20538;-74
2022/07/04 11:34:14;;;;;;;2.63;1.90;;;23.90;99.90;;;;;;5054880;28;20449;-75
2022/07/04 11:36:42;;;;;;;4.10;2.20;;;23.70;99.90;;;;;;5054910;28;20461;-74
2022/07/04 11:39:11;;;;;;;2.40;1.60;;;23.70;99.90;;;;;;5054778;28;20474;-75
2022/07/04 11:47:15;;;;;;;2.00;1.90;;;23.70;99.90;;;;;;5054633;28;20560;-74
2022/07/04 11:49:48;;;;;;;5.47;4.90;;;23.60;99.90;;;;;;5054398;28;20477;-75
2022/07/04 11:52:16;;;;;;;2.27;2.07;;;23.50;99.90;;;;;;5054494;28;20445;-75
2022/07/04 11:54:44;;;;;;;2.53;2.17;;;23.50;99.90;;;;;;5054524;28;20815;-75
2022/07/04 11:57:17;;;;;;;2.60;2.20;;;23.50;99.90;;;;;;5054139;28;20495;-75
2022/07/04 11:59:52;;;;;;;1.90;1.70;;;23.60;99.90;;;;;;5054326;28;20429;-75
2022/07/04 12:02:19;;;;;;;1.70;1.50;;;23.60;99.90;;;;;;5054803;28;20421;-75
2022/07/04 12:04:46;;;;;;;1.90;1.80;;;23.50;99.90;;;;;;5053849;28;20493;-75
2022/07/04 12:07:15;;;;;;;2.70;2.03;;;23.40;99.90;;;;;;5054268;28;20477;-75
2022/07/04 12:09:44;;;;;;;7.43;1.70;;;23.30;99.90;;;;;;5054541;28;20450;-75
2022/07/04 12:12:11;;;;;;;5.13;1.70;;;23.30;99.90;;;;;;5054269;28;20495;-75
2022/07/04 12:14:40;;;;;;;1.63;1.43;;;23.30;99.90;;;;;;5054223;28;20452;-74
2022/07/04 12:17:11;;;;;;;1.53;1.33;;;23.50;99.90;;;;;;5054057;28;20468;-74
2022/07/04 12:19:38;;;;;;;3.00;1.60;;;23.60;99.90;;;;;;5053749;28;20475;-74
2022/07/04 12:22:05;;;;;;;2.60;1.77;;;23.70;99.90;;;;;;5054060;28;20457;-74
2022/07/04 12:24:41;;;;;;;4.90;4.00;;;23.70;99.90;;;;;;5053988;28;20485;-75
2022/07/04 12:27:16;;;;;;;2.17;1.97;;;23.90;99.90;;;;;;5054442;28;20991;-76
2022/07/04 12:29:52;;;;;;;2.87;2.53;;;24.00;99.90;;;;;;5054715;28;20437;-76
2022/07/04 12:32:19;;;;;;;1.50;1.40;;;24.30;99.90;;;;;;5053670;28;20434;-76
2022/07/04 12:34:46;;;;;;;3.27;1.57;;;;;;;;;;5054271;28;20968;-75
2022/07/04 12:37:15;;;;;;;1.80;1.70;;;24.40;99.90;;;;;;5053257;28;20472;-75
2022/07/04 12:39:43;;;;;;;1.67;1.30;;;24.40;99.90;;;;;;5053655;28;20460;-74
2022/07/04 12:42:12;;;;;;;2.80;1.40;;;24.40;99.90;;;;;;5054478;28;20857;-74
2022/07/04 12:44:40;;;;;;;2.43;1.23;;;24.50;99.90;;;;;;5053370;28;20573;-75
2022/07/04 12:47:10;;;;;;;1.50;1.40;;;24.60;99.90;;;;;;5053855;28;20840;-74
2022/07/04 12:49:37;;;;;;;3.67;1.40;;;24.40;99.90;;;;;;5053601;28;20454;-75
2022/07/04 12:52:09;;;;;;;2.20;1.30;;;24.10;99.90;;;;;;5053455;28;20446;-74
2022/07/04 12:54:38;;;;;;;6.03;1.57;;;23.90;99.90;;;;;;5053055;28;20949;-76
2022/07/04 12:57:15;;;;;;;3.70;1.13;;;24.10;99.90;;;;;;5053210;28;20469;-75
2022/07/04 12:59:43;;;;;;;2.90;1.57;;;24.20;99.90;;;;;;5053372;28;20796;-75
2022/07/04 13:02:12;;;;;;;1.60;1.50;;;24.00;99.90;;;;;;5053110;28;20951;-75
2022/07/04 13:04:39;;;;;;;2.67;1.20;;;24.10;99.90;;;;;;5053231;28;20549;-75
2022/07/04 13:07:16;;;;;;;1.73;1.60;;;24.10;99.90;;;;;;5053015;28;20469;-75
2022/07/04 13:09:43;;;;;;;2.00;1.27;;;23.90;99.90;;;;;;5053118;28;20452;-75
2022/07/04 13:12:24;;;;;;;2.00;1.30;;;23.70;99.90;;;;;;5053145;28;20442;-75